地図

経路データ

SID SEASON NUMBER BASIN SUBBASIN NAME ISO_TIME NATURE LAT LON WMO_WIND WMO_PRES WMO_AGENCY TRACK_TYPE DIST2LAND LANDFALL IFLAG USA_AGENCY USA_ATCF_ID USA_LAT USA_LON USA_RECORD USA_STATUS USA_WIND USA_PRES USA_SSHS USA_R34_NE USA_R34_SE USA_R34_SW USA_R34_NW USA_R50_NE USA_R50_SE USA_R50_SW USA_R50_NW USA_R64_NE USA_R64_SE USA_R64_SW USA_R64_NW USA_POCI USA_ROCI USA_RMW USA_EYE TOKYO_LAT TOKYO_LON TOKYO_GRADE TOKYO_WIND TOKYO_PRES TOKYO_R50_DIR TOKYO_R50_LONG TOKYO_R50_SHORT TOKYO_R30_DIR TOKYO_R30_LONG TOKYO_R30_SHORT TOKYO_LAND CMA_LAT CMA_LON CMA_CAT CMA_WIND CMA_PRES HKO_LAT HKO_LON HKO_CAT HKO_WIND HKO_PRES NEWDELHI_LAT NEWDELHI_LON NEWDELHI_GRADE NEWDELHI_WIND NEWDELHI_PRES NEWDELHI_CI NEWDELHI_DP NEWDELHI_POCI REUNION_LAT REUNION_LON REUNION_TYPE REUNION_WIND REUNION_PRES REUNION_TNUM REUNION_CI REUNION_RMW REUNION_R34_NE REUNION_R34_SE REUNION_R34_SW REUNION_R34_NW REUNION_R50_NE REUNION_R50_SE REUNION_R50_SW REUNION_R50_NW REUNION_R64_NE REUNION_R64_SE REUNION_R64_SW REUNION_R64_NW BOM_LAT BOM_LON BOM_TYPE BOM_WIND BOM_PRES BOM_TNUM BOM_CI BOM_RMW BOM_R34_NE BOM_R34_SE BOM_R34_SW BOM_R34_NW BOM_R50_NE BOM_R50_SE BOM_R50_SW BOM_R50_NW BOM_R64_NE BOM_R64_SE BOM_R64_SW BOM_R64_NW BOM_ROCI BOM_POCI BOM_EYE BOM_POS_METHOD BOM_PRES_METHOD NADI_LAT NADI_LON NADI_CAT NADI_WIND NADI_PRES WELLINGTON_LAT WELLINGTON_LON WELLINGTON_WIND WELLINGTON_PRES DS824_LAT DS824_LON DS824_STAGE DS824_WIND DS824_PRES TD9636_LAT TD9636_LON TD9636_STAGE TD9636_WIND TD9636_PRES TD9635_LAT TD9635_LON TD9635_WIND TD9635_PRES TD9635_ROCI NEUMANN_LAT NEUMANN_LON NEUMANN_CLASS NEUMANN_WIND NEUMANN_PRES MLC_LAT MLC_LON MLC_CLASS MLC_WIND MLC_PRES USA_GUST BOM_GUST BOM_GUST_PER REUNION_GUST REUNION_GUST_PER USA_SEAHGT USA_SEARAD_NE USA_SEARAD_SE USA_SEARAD_SW USA_SEARAD_NW STORM_SPEED STORM_DIR
1983051S15214 1983 9 SP MM NISHA:ORAMA 1983-02-20 00:00:00 NR -15.0000 -146.000 30 997 wellington main 2824 2824 ________O_____ -1 -15.0000 -146.000 30 997 4 91
1983051S15214 1983 9 SP MM NISHA:ORAMA 1983-02-20 03:00:00 NR -15.0018 -145.809 main 2846 2846 ________P_____ -1 -15.0018 -145.809 30 997 4 90
1983051S15214 1983 9 SP MM NISHA:ORAMA 1983-02-20 06:00:00 NR -15.0028 -145.625 main 2867 2867 ________P_____ -1 -15.0028 -145.625 30 997 3 90
1983051S15214 1983 9 SP MM NISHA:ORAMA 1983-02-20 09:00:00 NR -15.0024 -145.453 main 2878 2878 ________P_____ -1 -15.0024 -145.453 30 997 14 57
1983051S15214 1983 9 SP MM NISHA:ORAMA 1983-02-20 12:00:00 TS -14.2667 -144.433 30 997 wellington main 2999 2999 O_______O___O_ jtwc_sh SH131983 -12.8000 -142.700 25 -1 -15.0000 -145.300 30 997 -12.8000 -142.700 TC 25 18 54
1983051S15214 1983 9 SP MM NISHA:ORAMA 1983-02-20 15:00:00 TS -13.9358 -143.934 main 3055 3055 P_______P___P_ SH131983 -12.8775 -142.700 26 -1 -14.9942 -145.167 30 997 -12.8775 -142.700 TC 25 9 58
1983051S15214 1983 9 SP MM NISHA:ORAMA 1983-02-20 18:00:00 TS -13.7919 -143.635 main 3088 3088 O_______P___O_ jtwc_sh SH131983 -13.0000 -142.700 28 -1 -14.9797 -145.038 30 997 -13.0000 -142.700 TC 25 5 72
1983051S15214 1983 9 SP MM NISHA:ORAMA 1983-02-20 21:00:00 TS -13.7785 -143.430 main 3109 3109 P_______P___P_ SH131983 -13.1925 -142.700 29 -1 -14.9504 -144.889 30 997 -13.1925 -142.700 TC 27 3 113
1983051S15214 1983 9 SP MM NISHA:ORAMA 1983-02-21 00:00:00 TS -13.9000 -143.367 30 997 wellington main 3109 3109 O_______O___O_ jtwc_sh SH131983 -13.4000 -142.700 30 -1 -14.9000 -144.700 30 997 -13.4000 -142.700 TC 30 3 142
1983051S15214 1983 9 SP MM NISHA:ORAMA 1983-02-21 03:00:00 TS -13.9830 -143.269 main 3119 3119 P_______P___P_ SH131983 -13.5575 -142.700 30 -1 -14.8341 -144.406 30 997 -13.5575 -142.700 TC 30 3 126
1983051S15214 1983 9 SP MM NISHA:ORAMA 1983-02-21 06:00:00 TS -14.0485 -143.159 main 3129 3129 O_______P___O_ jtwc_sh SH131983 -13.7000 -142.700 30 -1 -14.7455 -144.077 30 997 -13.7000 -142.700 TC 30 2 123
1983051S15214 1983 9 SP MM NISHA:ORAMA 1983-02-21 09:00:00 TS -14.1164 -143.053 main 3140 3140 P_______P___P_ SH131983 -13.8575 -142.700 30 -1 -14.6341 -143.760 30 997 -13.8575 -142.700 TC 30 2 122
1983051S15214 1983 9 SP MM NISHA:ORAMA 1983-02-21 12:00:00 TS -14.1667 -142.967 30 997 wellington main 3150 3150 O_______O___O_ jtwc_sh SH131983 -14.0000 -142.700 30 -1 -14.5000 -143.500 30 997 -14.0000 -142.700 TC 30 2 108
1983051S15214 1983 9 SP MM NISHA:ORAMA 1983-02-21 15:00:00 TS -14.1672 -142.890 main 3161 3161 P_______P___P_ SH131983 -14.1000 -142.678 30 -1 -14.3016 -143.316 31 996 -14.1000 -142.678 TC 30 1 88
1983051S15214 1983 9 SP MM NISHA:ORAMA 1983-02-21 18:00:00 TS -14.1632 -142.867 main 3161 3161 O_______P___O_ jtwc_sh SH131983 -14.2000 -142.700 31 -1 -14.0897 -143.200 32 996 -14.2000 -142.700 TC 30 1 224
1983051S15214 1983 9 SP MM NISHA:ORAMA 1983-02-21 21:00:00 TS -14.2076 -142.938 main 3161 3139 P_______P___P_ SH131983 -14.3575 -142.827 33 -1 -13.9079 -143.160 33 995 -14.3575 -142.827 TC 32 2 242
1983051S15214 1983 9 SP MM NISHA:ORAMA 1983-02-22 00:00:00 TS -14.2667 -143.067 35 995 wellington main 3139 3128 O_______O___O_ jtwc_sh SH131983 -14.5000 -143.000 35 0 -13.8000 -143.200 35 995 -14.5000 -143.000 TC 35 3 246
1983051S15214 1983 9 SP MM NISHA:ORAMA 1983-02-22 03:00:00 TS -14.3156 -143.194 main 3128 3106 P_______P___P_ SH131983 -14.5650 -143.135 36 0 -13.8169 -143.313 37 993 -14.5650 -143.135 TC 35 3 250
1983051S15214 1983 9 SP MM NISHA:ORAMA 1983-02-22 06:00:00 TS -14.3700 -143.367 main 3106 3084 O_______P___O_ jtwc_sh SH131983 -14.6000 -143.300 38 0 -13.9101 -143.502 40 991 -14.6000 -143.300 TC 35 4 250
1983051S15214 1983 9 SP MM NISHA:ORAMA 1983-02-22 09:00:00 TS -14.4544 -143.599 main 3084 3051 P_______P___P_ SH131983 -14.6575 -143.527 41 0 -14.0482 -143.741 42 989 -14.6575 -143.527 TC 40 5 251
1983051S15214 1983 9 SP MM NISHA:ORAMA 1983-02-22 12:00:00 TS -14.5333 -143.867 45 987 wellington main 3051 3030 O_______O___O_ jtwc_sh SH131983 -14.7000 -143.800 45 0 -14.2000 -144.000 45 987 -14.7000 -143.800 TC 45 5 257
1983051S15214 1983 9 SP MM NISHA:ORAMA 1983-02-22 15:00:00 TS -14.5739 -144.134 main 3030 2997 P_______P___P_ SH131983 -14.7000 -144.085 50 0 -14.3218 -144.232 47 985 -14.7000 -144.085 TC 50 5 261
1983051S15214 1983 9 SP MM NISHA:ORAMA 1983-02-22 18:00:00 TS -14.6166 -144.426 main 2997 2965 O_______P___O_ jtwc_sh SH131983 -14.7000 -144.400 55 0 -14.4499 -144.478 50 983 -14.7000 -144.400 TC 55 6 258
1983051S15214 1983 9 SP MM NISHA:ORAMA 1983-02-22 21:00:00 TS -14.6977 -144.750 main 2965 2921 P_______P___P_ SH131983 -14.7575 -144.757 60 0 -14.5781 -144.735 52 981 -14.7575 -144.757 TC 60 6 256
1983051S15214 1983 9 SP MM NISHA:ORAMA 1983-02-23 00:00:00 TS -14.7667 -145.067 55 980 wellington main 2921 2900 O_______O___O_ jtwc_sh SH131983 -14.8000 -145.100 65 1 -14.7000 -145.000 55 980 -14.8000 -145.100 TC 65 6 263
1983051S15214 1983 9 SP MM NISHA:ORAMA 1983-02-23 03:00:00 TS -14.7640 -145.335 main 2900 2868 P_______P___P_ SH131983 -14.7424 -145.365 68 1 -14.8072 -145.276 58 976 -14.7424 -145.365 TC 67 5 270
1983051S15214 1983 9 SP MM NISHA:ORAMA 1983-02-23 06:00:00 TS -14.7692 -145.586 main 2868 2846 O_______P___O_ jtwc_sh SH131983 -14.7000 -145.600 72 1 -14.9075 -145.558 62 972 -14.7000 -145.600 TC 70 5 261
1983051S15214 1983 9 SP MM NISHA:ORAMA 1983-02-23 09:00:00 TS -14.8480 -145.855 main 2835 2814 P_______P___P_ SH131983 -14.7700 -145.865 76 1 -15.0041 -145.835 66 968 -14.7700 -145.865 TC 75 5 248
1983051S15214 1983 9 SP MM NISHA:ORAMA 1983-02-23 12:00:00 TS -14.9667 -146.100 70 965 wellington main 2814 2792 O_______O___O_ jtwc_sh SH131983 -14.9000 -146.100 80 1 -15.1000 -146.100 70 965 -14.9000 -146.100 TC 80 5 240
1983051S15214 1983 9 SP MM NISHA:ORAMA 1983-02-23 15:00:00 TS -15.0936 -146.297 main 2792 2770 P_______P___P_ SH131983 -15.0425 -146.265 83 2 -15.1959 -146.360 73 960 -15.0425 -146.265 TC 82 4 233
1983051S15214 1983 9 SP MM NISHA:ORAMA 1983-02-23 18:00:00 TS -15.2308 -146.468 main 2770 2760 O_______P___O_ jtwc_sh SH131983 -15.2000 -146.400 87 2 -15.2925 -146.603 77 955 -15.2000 -146.400 TC 85 4 232
1983051S15214 1983 9 SP MM NISHA:ORAMA 1983-02-23 21:00:00 TS -15.3643 -146.650 main 2760 2738 P_______P___P_ SH131983 -15.3500 -146.565 91 2 -15.3928 -146.819 81 950 -15.3500 -146.565 TC 90 4 230
1983051S15214 1983 9 SP MM NISHA:ORAMA 1983-02-24 00:00:00 TS -15.5000 -146.800 85 945 wellington main 2738 2728 O_______O___O_ jtwc_sh SH131983 -15.5000 -146.700 95 2 -15.5000 -147.000 85 945 -15.5000 -146.700 TC 95 4 222
1983051S15214 1983 9 SP MM NISHA:ORAMA 1983-02-24 03:00:00 TS -15.6365 -146.902 main 2728 2717 P_______P___P_ SH131983 -15.6500 -146.773 97 3 -15.6096 -147.160 88 940 -15.6500 -146.773 TC 100 3 209
1983051S15214 1983 9 SP MM NISHA:ORAMA 1983-02-24 06:00:00 TS -15.7758 -146.961 main 2717 2717 O_______P___O_ jtwc_sh SH131983 -15.8000 -146.800 100 3 -15.7274 -147.282 92 935 -15.8000 -146.800 TC 105 943 3 198
1983051S15214 1983 9 SP MM NISHA:ORAMA 1983-02-24 09:00:00 TS -15.9188 -146.998 main 2718 2718 P_______P___P_ SH131983 -15.9500 -146.815 100 3 -15.8565 -147.363 96 930 -15.9500 -146.815 TC 102 3 188
1983051S15214 1983 9 SP MM NISHA:ORAMA 1983-02-24 12:00:00 TS -16.0667 -147.000 100 925 wellington main 2718 2718 O_______O___O_ jtwc_sh SH131983 -16.1000 -146.800 100 3 -16.0000 -147.400 100 925 -16.1000 -146.800 TC 100 3 175
1983051S15214 1983 9 SP MM NISHA:ORAMA 1983-02-24 15:00:00 TS -16.2215 -146.977 main 2719 2719 P_______P___P_ SH131983 -16.2500 -146.758 98 3 -16.1646 -147.417 100 925 -16.2500 -146.758 TC 97 3 168
1983051S15214 1983 9 SP MM NISHA:ORAMA 1983-02-24 18:00:00 TS -16.3808 -146.930 main 2730 2730 O_______P___O_ jtwc_sh SH131983 -16.4000 -146.700 97 3 -16.3424 -147.390 100 925 -16.4000 -146.700 TC 95 3 164
1983051S15214 1983 9 SP MM NISHA:ORAMA 1983-02-24 21:00:00 TS -16.5413 -146.877 main 2731 2731 P_______P___P_ SH131983 -16.5500 -146.657 96 3 -16.5239 -147.317 100 925 -16.5500 -146.657 TC 95 3 159
1983051S15214 1983 9 SP MM NISHA:ORAMA 1983-02-25 00:00:00 TS -16.7000 -146.800 100 925 wellington main 2743 2743 O_______O___O_ jtwc_sh SH131983 -16.7000 -146.600 95 2 -16.7000 -147.200 100 925 -16.7000 -146.600 TC 95 4 149
1983051S15214 1983 9 SP MM NISHA:ORAMA 1983-02-25 03:00:00 TS -16.8497 -146.687 main 2754 2754 P_______P___P_ SH131983 -16.8500 -146.508 93 2 -16.8491 -147.047 97 928 -16.8500 -146.508 TC 92 4 141
1983051S15214 1983 9 SP MM NISHA:ORAMA 1983-02-25 06:00:00 TS -16.9975 -146.551 main 2766 2766 O_______P___O_ jtwc_sh SH131983 -17.0000 -146.400 92 2 -16.9926 -146.852 95 932 -17.0000 -146.400 TC 90 4 139
1983051S15214 1983 9 SP MM NISHA:ORAMA 1983-02-25 09:00:00 TS -17.1466 -146.415 main 2788 2788 P_______P___P_ SH131983 -17.1500 -146.307 91 2 -17.1397 -146.631 92 936 -17.1500 -146.307 TC 90 4 138
1983051S15214 1983 9 SP MM NISHA:ORAMA 1983-02-25 12:00:00 TS -17.3000 -146.267 90 940 wellington main 2800 2800 O_______O___O_ jtwc_sh SH131983 -17.3000 -146.200 90 2 -17.3000 -146.400 90 940 -17.3000 -146.200 TC 90 4 134
1983051S15214 1983 9 SP MM NISHA:ORAMA 1983-02-25 15:00:00 TS -17.4437 -146.098 main 2822 2822 P_______P___P_ SH131983 -17.4350 -146.050 88 2 -17.4611 -146.194 87 943 -17.4350 -146.050 TC 87 5 134
1983051S15214 1983 9 SP MM NISHA:ORAMA 1983-02-25 18:00:00 TS -17.6133 -145.926 main 2845 2845 O_______P___O_ jtwc_sh SH131983 -17.6000 -145.900 87 2 -17.6398 -145.979 85 947 -17.6000 -145.900 TC 85 5 144
1983051S15214 1983 9 SP MM NISHA:ORAMA 1983-02-25 21:00:00 TS -17.8344 -145.803 main 2858 2858 P_______P___P_ SH131983 -17.8274 -145.830 86 2 -17.8486 -145.750 82 951 -17.8274 -145.830 TC 85 6 150
1983051S15214 1983 9 SP MM NISHA:ORAMA 1983-02-26 00:00:00 TS -18.1000 -145.633 80 955 wellington main 2882 2882 O_______O___O_ jtwc_sh SH131983 -18.1000 -145.700 85 2 -18.1000 -145.500 80 955 -18.1000 -145.700 TC 85 7 141
1983051S15214 1983 9 SP MM NISHA:ORAMA 1983-02-26 03:00:00 TS -18.3741 -145.340 main 2917 2917 P_______P___P_ SH131983 -18.3701 -145.387 83 2 -18.3822 -145.245 77 957 -18.3701 -145.387 TC 82 9 135
1983051S15214 1983 9 SP MM NISHA:ORAMA 1983-02-26 06:00:00 TS -18.7032 -144.989 main 2952 2952 O_______P___O_ jtwc_sh SH131983 -18.7000 -145.000 82 1 -18.7096 -144.966 75 960 -18.7000 -145.000 TC 80 10 139
1983051S15214 1983 9 SP MM NISHA:ORAMA 1983-02-26 09:00:00 TS -19.1173 -144.656 main 2989 2989 P_______P___P_ SH131983 -19.1349 -144.657 81 1 -19.0821 -144.654 72 962 -19.1349 -144.657 TC 80 11 143
1983051S15214 1983 9 SP MM NISHA:ORAMA 1983-02-26 12:00:00 TS -19.5667 -144.300 70 965 wellington main 3038 3038 O_______O___O_ jtwc_sh SH131983 -19.6000 -144.300 80 1 -19.5000 -144.300 70 965 -19.6000 -144.300 TC 80 11 140
1983051S15214 1983 9 SP MM NISHA:ORAMA 1983-02-26 15:00:00 TS -19.9740 -143.898 main 3086 3086 P_______P___P_ SH131983 -19.9925 -143.907 78 1 -19.9370 -143.881 66 968 -19.9925 -143.907 TC 77 11 137
1983051S15214 1983 9 SP MM NISHA:ORAMA 1983-02-26 18:00:00 TS -20.4060 -143.474 main 3134 3134 O_______P___O_ jtwc_sh SH131983 -20.4000 -143.500 77 1 -20.4181 -143.422 62 972 -20.4000 -143.500 TC 75 12 139
1983051S15214 1983 9 SP MM NISHA:ORAMA 1983-02-26 21:00:00 TS -20.8782 -143.070 main 3184 3184 P_______P___P_ SH131983 -20.8472 -143.129 76 1 -20.9401 -142.953 58 976 -20.8472 -143.129 TC 75 13 143
1983051S15214 1983 9 SP MM NISHA:ORAMA 1983-02-27 00:00:00 TS -21.4333 -142.633 55 980 wellington main 3244 3244 O_______O___O_ jtwc_sh SH131983 -21.4000 -142.700 75 1 -21.5000 -142.500 55 980 -21.4000 -142.700 TC 75 15 143
1983051S15214 1983 9 SP MM NISHA:ORAMA 1983-02-27 03:00:00 TS -22.0815 -142.110 main 3310 3310 P_______P___P_ SH131983 -22.0752 -142.122 73 1 -22.0942 -142.087 51 982 -22.0752 -142.122 TC 72 17 145
1983051S15214 1983 9 SP MM NISHA:ORAMA 1983-02-27 06:00:00 TS -22.8495 -141.556 main 3376 3376 O_______P___O_ jtwc_sh SH131983 -22.9000 -141.500 71 1 -22.7149 -141.707 47 985 -22.9000 -141.500 TC 70 20 149
1983051S15214 1983 9 SP MM NISHA:ORAMA 1983-02-27 09:00:00 TS -23.7484 -141.029 main 3457 3457 P_______P___P_ SH131983 -23.8472 -140.949 68 1 -23.3533 -141.349 43 987 -23.8472 -140.949 TC 67 22 153
1983051S15214 1983 9 SP MM NISHA:ORAMA 1983-02-27 12:00:00 TS -24.8000 -140.467 40 990 wellington main 3535 3535 O_______O___O_ jtwc_sh SH131983 -24.9000 -140.400 65 1 -24.0000 -141.000 40 990 -24.9000 -140.400 TC 65 25 153
1983051S15214 1983 9 SP MM NISHA:ORAMA 1983-02-27 15:00:00 TS -25.9626 -139.792 main 3638 3638 P___________P_ SH131983 -25.9626 -139.792 59 0 -25.9626 -139.792 TC 57 26 154
1983051S15214 1983 9 SP MM NISHA:ORAMA 1983-02-27 18:00:00 TS -27.1000 -139.200 main 3729 3729 O___________O_ jtwc_sh SH131983 -27.1000 -139.200 53 0 -27.1000 -139.200 TC 50 25 157
1983051S15214 1983 9 SP MM NISHA:ORAMA 1983-02-27 21:00:00 TS -28.2749 -138.669 main 3816 3816 P___________P_ SH131983 -28.2749 -138.669 46 0 -28.2749 -138.669 TC 42 27 161
1983051S15214 1983 9 SP MM NISHA:ORAMA 1983-02-28 00:00:00 TS -29.6000 -138.200 main 3909 3909 O___________O_ jtwc_sh SH131983 -29.6000 -138.200 39 0 -29.6000 -138.200 TC 35 30 164
1983051S15214 1983 9 SP MM NISHA:ORAMA 1983-02-28 03:00:00 TS -31.1102 -137.755 main 4002 3990 P___________P_ SH131983 -31.1102 -137.755 35 0 -31.1102 -137.755 TC 32 33 168
1983051S15214 1983 9 SP MM NISHA:ORAMA 1983-02-28 06:00:00 TS -32.8000 -137.400 main 3986 3940 O___________O_ jtwc_sh SH131983 -32.8000 -137.400 31 -1 -32.8000 -137.400 TC 30 36 172
1983051S15214 1983 9 SP MM NISHA:ORAMA 1983-02-28 09:00:00 TS -34.6172 -137.166 main 3937 3895 P___________P_ SH131983 -34.6172 -137.166 28 -1 -34.6172 -137.166 TC 27 37 175
1983051S15214 1983 9 SP MM NISHA:ORAMA 1983-02-28 12:00:00 TS -36.5000 -137.000 main 3892 O___________O_ jtwc_sh SH131983 -36.5000 -137.000 25 -1 -36.5000 -137.000 TC 25 38 176

デジタル台風データ・検索

IBTrACS Databaseについて

本データベースは、米国NOAAが公開する1842年以降の世界の熱帯低気圧のベストトラックデータアーカイブInternational Best Track Archive for Climate Stewardship (IBTrACS)を、ウェブで閲覧しやすい形式に変換したものです。

最終更新日:2021-12-06